Time;durP1;ratioP1;P1;durP2;ratioP2;P2;SDS_P1;SDS_P2;PMS_P1;PMS_P2;Temp;Humidity;BMP_temperature;BMP_pressure;BME280_temperature;BME280_humidity;BME280_pressure;Samples;Min_cycle;Max_cycle;Signal;HPM_P1;HPM_P2
2023/01/07 00:00:05;;;;;;;;;;;;;;;27.00;44.63;97699.41;615173;230;62726;-72
2023/01/07 00:02:34;;;;;;;;;;;;;;;26.98;46.16;97696.20;614970;230;47448;-72
2023/01/07 00:05:01;;;;;;;;;;;;;;;26.98;47.03;97698.89;615162;230;66541;-71
2023/01/07 00:07:29;;;;;;;;;;;;;;;26.97;46.95;97703.49;615162;230;62757;-72
2023/01/07 00:09:56;;;;;;;;;;;;;;;26.95;46.50;97694.89;615175;230;66430;-71
2023/01/07 00:12:24;;;;;;;;;;;;;;;26.94;46.11;97706.78;615204;230;66107;-72
2023/01/07 00:14:51;;;;;;;;;;;;;;;26.93;45.96;97702.49;615175;230;62781;-72
2023/01/07 00:17:19;;;;;;;;;;;;;;;26.93;45.53;97710.59;615182;230;68658;-71
2023/01/07 00:19:46;;;;;;;;;;;;;;;26.91;45.08;97709.27;615146;230;68878;-72
2023/01/07 00:22:13;;;;;;;;;;;;;;;26.90;45.31;97705.78;615161;230;62738;-71
2023/01/07 00:24:41;;;;;;;;;;;;;;;26.88;44.91;97697.17;614899;230;68406;-72
2023/01/07 00:27:08;;;;;;;;;;;;;;;26.88;44.57;97701.77;615136;230;68569;-72
2023/01/07 00:29:36;;;;;;;;;;;;;;;26.87;45.19;97702.84;615125;230;66038;-71
2023/01/07 00:32:03;;;;;;;;;;;;;;;26.88;45.79;97709.86;615164;230;68686;-72
2023/01/07 00:34:31;;;;;;;;;;;;;;;26.85;45.94;97700.45;615156;230;69481;-71
2023/01/07 00:37:48;;;;;;;;;;;;;;;26.84;45.27;97698.05;615038;230;63720;-72
2023/01/07 00:39:28;;;;;;;;;;;;;;;26.83;45.76;97713.42;613864;230;68451;-72
2023/01/07 00:44:41;;;;;;;;;;;;;;;26.81;45.67;97720.20;615138;230;62781;-72
2023/01/07 00:47:08;;;;;;;;;;;;;;;26.79;45.85;97715.91;615136;230;66810;-73
2023/01/07 00:49:36;;;;;;;;;;;;;;;26.78;45.60;97716.19;615149;230;66480;-73
2023/01/07 00:52:03;;;;;;;;;;;;;;;26.77;46.51;97715.40;615183;230;62829;-73
2023/01/07 00:54:31;;;;;;;;;;;;;;;26.76;46.57;97712.98;615177;230;68751;-73
2023/01/07 00:56:58;;;;;;;;;;;;;;;26.75;45.65;97716.78;615150;230;68546;-73
2023/01/07 00:59:26;;;;;;;;;;;;;;;26.74;47.69;97715.98;615176;230;64871;-73
2023/01/07 01:01:53;;;;;;;;;;;;;;;26.73;46.57;97711.66;614873;230;66683;-73
2023/01/07 01:04:21;;;;;;;;;;;;;;;26.72;46.56;97717.37;615145;230;66526;-72
2023/01/07 01:06:48;;;;;;;;;;;;;;;26.71;46.74;97721.96;615127;230;64839;-73
2023/01/07 01:09:16;;;;;;;;;;;;;;;26.69;45.99;97713.36;615153;230;68655;-73
2023/01/07 01:11:43;;;;;;;;;;;;;;;26.68;47.63;97724.42;615138;230;68545;-73
2023/01/07 01:14:11;;;;;;;;;;;;;;;26.67;46.17;97731.71;615131;230;65251;-73
2023/01/07 01:16:39;;;;;;;;;;;;;;;26.67;45.61;97720.13;615157;230;69595;-72
2023/01/07 01:19:06;;;;;;;;;;;;;;;26.65;46.14;97723.10;615151;230;66521;-72
2023/01/07 01:21:34;;;;;;;;;;;;;;;26.63;46.57;97719.92;614896;230;65125;-73
2023/01/07 01:24:01;;;;;;;;;;;;;;;26.63;45.79;97719.92;615145;230;68663;-73
2023/01/07 01:26:29;;;;;;;;;;;;;;;26.62;45.57;97723.69;615121;230;69257;-73
2023/01/07 01:28:56;;;;;;;;;;;;;;;26.62;46.48;97729.08;614080;230;64879;-73
2023/01/07 01:31:24;;;;;;;;;;;;;;;26.60;47.74;97731.29;613768;231;68660;-73
2023/01/07 01:33:56;;;;;;;;;;;;;;;26.59;45.80;97734.27;613756;231;66401;-73
2023/01/07 01:36:24;;;;;;;;;;;;;;;26.60;46.40;97730.46;613762;231;63119;-74
2023/01/07 01:38:52;;;;;;;;;;;;;;;26.58;48.37;97730.77;613768;231;68850;-74
2023/01/07 01:41:20;;;;;;;;;;;;;;;26.55;47.27;97732.15;613462;231;66037;-74
2023/01/07 01:43:49;;;;;;;;;;;;;;;26.55;47.40;97729.45;613756;231;65581;-74
2023/01/07 01:46:21;;;;;;;;;;;;;;;26.52;47.52;97730.03;613761;231;68964;-74
2023/01/07 01:48:52;;;;;;;;;;;;;;;26.51;47.86;97733.01;613603;231;66530;-74
2023/01/07 01:51:22;;;;;;;;;;;;;;;26.50;47.03;97716.02;613777;231;62371;-73
2023/01/07 01:53:50;;;;;;;;;;;;;;;26.49;47.30;97716.28;613717;231;66354;-73
2023/01/07 01:56:19;;;;;;;;;;;;;;;26.48;48.05;97714.69;613788;231;66470;-73
2023/01/07 01:58:50;;;;;;;;;;;;;;;26.48;47.44;97723.58;613760;231;65773;-73
2023/01/07 02:01:17;;;;;;;;;;;;;;;26.46;47.32;97716.88;613680;231;66738;-73
2023/01/07 02:03:45;;;;;;;;;;;;;;;26.46;48.39;97719.56;613783;231;66547;-74
2023/01/07 02:06:22;;;;;;;;;;;;;;;26.43;48.02;97718.25;613746;231;43823;-74
2023/01/07 02:08:50;;;;;;;;;;;;;;;26.42;47.33;97716.66;613749;231;66367;-73
2023/01/07 02:11:20;;;;;;;;;;;;;;;26.41;47.58;97716.94;613761;231;68672;-72
2023/01/07 02:14:04;;;;;;;;;;;;;;;26.40;47.50;97721.53;613756;231;62359;-72
2023/01/07 02:16:40;;;;;;;;;;;;;;;26.41;47.67;97722.32;613558;231;68693;-73
2023/01/07 02:19:10;;;;;;;;;;;;;;;26.39;47.73;97711.85;613769;231;68507;-73
2023/01/07 02:21:51;;;;;;;;;;;;;;;26.38;48.98;97712.13;613759;231;62731;-73
2023/01/07 02:24:20;;;;;;;;;;;;;;;26.36;48.73;97715.13;613484;231;68700;-73
2023/01/07 02:26:55;;;;;;;;;;;;;;;26.34;48.01;97715.41;613393;231;68527;-73
2023/01/07 02:29:24;;;;;;;;;;;;;;;26.34;47.67;97709.22;614732;230;62740;-73
2023/01/07 02:32:09;;;;;;;;;;;;;;;26.32;47.63;97706.00;615148;230;66699;-73
2023/01/07 02:34:39;;;;;;;;;;;;;;;26.31;49.50;97710.59;598912;235;66698;-72
2023/01/07 02:37:23;;;;;;;;;;;;;;;26.30;48.29;97710.88;609990;230;64935;-72
2023/01/07 02:39:52;;;;;;;;;;;;;;;26.28;48.87;97710.38;614743;230;66475;-72
2023/01/07 02:42:21;;;;;;;;;;;;;;;26.27;47.21;97706.89;614863;230;65457;-72
2023/01/07 02:44:52;;;;;;;;;;;;;;;26.27;48.98;97700.67;615157;230;65248;-73
2023/01/07 02:47:22;;;;;;;;;;;;;;;26.26;49.49;97697.19;615046;230;68392;-72
2023/01/07 02:49:51;;;;;;;;;;;;;;;26.25;48.28;97695.59;615006;230;48463;-71
2023/01/07 02:52:31;;;;;;;;;;;;;;;26.24;47.32;97691.27;615092;230;62768;-72
2023/01/07 02:55:06;;;;;;;;;;;;;;;26.24;49.20;97696.66;615136;230;68262;-71
2023/01/07 02:57:38;;;;;;;;;;;;;;;26.21;46.45;97697.24;614948;230;68572;-71
2023/01/07 03:00:10;;;;;;;;;;;;;;;26.21;48.81;97702.62;614820;230;64825;-71
2023/01/07 03:02:58;;;;;;;;;;;;;;;26.20;50.35;97697.55;614699;230;66226;-71
2023/01/07 03:05:39;;;;;;;;;;;;;;;26.17;49.78;97706.21;598892;236;69040;-73
2023/01/07 03:08:08;;;;;;;;;;;;;;;26.17;49.00;97708.91;598877;236;62755;-72
2023/01/07 03:10:37;;;;;;;;;;;;;;;26.16;48.85;97715.36;605876;230;66232;-72
2023/01/07 03:13:06;;;;;;;;;;;;;;;26.15;48.44;97719.95;614959;230;68578;-72
2023/01/07 03:15:37;;;;;;;;;;;;;;;26.15;48.44;97724.55;615068;230;65999;-73
2023/01/07 03:18:17;;;;;;;;;;;;;;;26.13;48.16;97722.13;615067;230;69372;-73
2023/01/07 03:20:46;;;;;;;;;;;;;;;26.10;49.10;97720.81;615134;230;66666;-73
2023/01/07 03:23:14;;;;;;;;;;;;;;;26.10;49.50;97726.20;615085;230;62825;-72
2023/01/07 03:25:44;;;;;;;;;;;;;;;26.09;49.95;97726.50;614812;230;65947;-72
2023/01/07 03:28:13;;;;;;;;;;;;;;;26.07;49.20;97721.39;614444;230;67389;-73
2023/01/07 03:30:41;;;;;;;;;;;;;;;26.06;48.05;97722.48;607427;230;64900;-73
2023/01/07 03:33:14;;;;;;;;;;;;;;;26.06;48.88;97717.09;607485;230;68775;-73
2023/01/07 03:35:44;;;;;;;;;;;;;;;26.05;49.29;97731.64;614810;230;68557;-72
2023/01/07 03:38:12;;;;;;;;;;;;;;;26.03;47.70;97727.66;613981;230;62818;-73
2023/01/07 03:40:40;;;;;;;;;;;;;;;26.04;48.33;97731.94;614950;230;69229;-73
2023/01/07 03:43:10;;;;;;;;;;;;;;;26.03;48.98;97731.14;615084;230;66035;-72
2023/01/07 03:45:38;;;;;;;;;;;;;;;26.02;49.79;97729.52;614344;230;62390;-73
2023/01/07 03:48:06;;;;;;;;;;;;;;;26.00;49.22;97726.33;615142;230;68636;-73
2023/01/07 03:50:35;;;;;;;;;;;;;;;25.99;49.87;97722.02;615084;230;45828;-73
2023/01/07 03:53:03;;;;;;;;;;;;;;;25.99;48.66;97726.61;615079;230;62827;-73
2023/01/07 03:55:32;;;;;;;;;;;;;;;25.97;47.96;97728.77;615165;230;46653;-73
2023/01/07 03:58:00;;;;;;;;;;;;;;;25.97;48.71;97729.57;615101;230;68378;-73
2023/01/07 04:00:27;;;;;;;;;;;;;;;25.96;47.33;97725.28;615146;230;62782;-73
2023/01/07 04:02:57;;;;;;;;;;;;;;;25.96;47.46;97727.98;614619;230;51362;-73
2023/01/07 04:05:29;;;;;;;;;;;;;;;25.95;49.15;97726.38;615019;230;46231;-73
2023/01/07 04:07:57;;;;;;;;;;;;;;;25.95;49.87;97725.59;615084;230;65531;-73
2023/01/07 04:10:25;;;;;;;;;;;;;;;25.93;48.14;97725.06;615090;230;69233;-73
2023/01/07 04:12:53;;;;;;;;;;;;;;;25.90;47.98;97719.16;614999;230;66448;-73
2023/01/07 04:15:21;;;;;;;;;;;;;;;25.90;49.16;97724.55;615132;230;62929;-72
2023/01/07 04:17:48;;;;;;;;;;;;;;;25.89;49.51;97728.33;615054;230;68763;-72
2023/01/07 04:20:16;;;;;;;;;;;;;;;25.88;48.80;97728.61;615069;230;69065;-72
2023/01/07 04:22:44;;;;;;;;;;;;;;;25.87;49.19;97729.70;615105;230;62702;-72
2023/01/07 04:25:11;;;;;;;;;;;;;;;25.85;48.31;97727.28;615089;230;68343;-72
2023/01/07 04:27:39;;;;;;;;;;;;;;;25.87;49.04;97737.78;614835;230;68651;-72
2023/01/07 04:30:07;;;;;;;;;;;;;;;25.85;48.48;97735.36;613640;231;65790;-73
2023/01/07 04:32:34;;;;;;;;;;;;;;;25.84;50.47;97738.36;613744;231;69112;-73
2023/01/07 04:35:02;;;;;;;;;;;;;;;25.83;48.25;97739.39;613722;231;66440;-72
2023/01/07 04:37:30;;;;;;;;;;;;;;;25.82;50.63;97743.98;613728;231;65652;-72
2023/01/07 04:39:57;;;;;;;;;;;;;;;25.82;51.75;97743.19;613787;231;69285;-73
2023/01/07 04:42:25;;;;;;;;;;;;;;;25.80;49.46;97746.15;613704;231;68906;-73
2023/01/07 04:44:53;;;;;;;;;;;;;;;25.79;49.69;97747.25;613685;231;63169;-73
2023/01/07 04:47:21;;;;;;;;;;;;;;;25.79;48.99;97746.45;613752;231;68957;-73
2023/01/07 04:49:48;;;;;;;;;;;;;;;25.78;48.46;97742.13;613708;231;66462;-73
2023/01/07 04:52:16;;;;;;;;;;;;;;;25.78;50.15;97750.21;608336;231;62759;-73
2023/01/07 04:54:43;;;;;;;;;;;;;;;25.78;49.78;97748.34;613685;231;68638;-73
2023/01/07 04:57:11;;;;;;;;;;;;;;;25.76;48.94;97747.82;613706;231;68677;-73
2023/01/07 04:59:38;;;;;;;;;;;;;;;25.76;49.45;97750.52;613698;231;65660;-73
2023/01/07 05:02:06;;;;;;;;;;;;;;;25.76;49.89;97741.64;613741;231;68603;-73
2023/01/07 05:04:34;;;;;;;;;;;;;;;25.75;47.94;97743.50;613702;231;68694;-73
2023/01/07 05:07:02;;;;;;;;;;;;;;;25.76;50.44;97750.52;613785;231;62852;-73
2023/01/07 05:09:29;;;;;;;;;;;;;;;25.76;48.57;97752.41;613686;231;69317;-73
2023/01/07 05:11:57;;;;;;;;;;;;;;;25.77;48.13;97749.41;613729;231;68463;-73
2023/01/07 05:14:25;;;;;;;;;;;;;;;25.77;48.01;97749.41;613721;231;62285;-73
2023/01/07 05:16:53;;;;;;;;;;;;;;;25.77;48.10;97749.41;613700;231;69255;-72
2023/01/07 05:19:21;;;;;;;;;;;;;;;25.79;47.94;97749.14;613746;231;68973;-73
2023/01/07 05:21:49;;;;;;;;;;;;;;;25.80;47.87;97750.73;613713;231;65887;-73
2023/01/07 05:24:16;;;;;;;;;;;;;;;25.81;48.60;97755.85;613702;231;69102;-73
2023/01/07 05:26:44;;;;;;;;;;;;;;;25.81;47.85;97755.85;613698;231;66089;-73
2023/01/07 05:29:12;;;;;;;;;;;;;;;25.82;48.09;97768.22;613684;231;65684;-73
2023/01/07 05:31:41;;;;;;;;;;;;;;;25.84;47.88;97760.70;613734;231;69118;-73
2023/01/07 05:34:08;;;;;;;;;;;;;;;25.85;48.82;97764.98;613736;231;68558;-73
2023/01/07 05:36:36;;;;;;;;;;;;;;;25.87;49.27;97762.02;613759;231;65051;-73
2023/01/07 05:39:05;;;;;;;;;;;;;;;25.88;48.62;97759.02;613667;231;65836;-73
2023/01/07 05:41:33;;;;;;;;;;;;;;;25.91;49.61;97769.22;613704;231;69083;-73
2023/01/07 05:44:00;;;;;;;;;;;;;;;25.93;47.04;97766.26;613746;231;65737;-73
2023/01/07 05:46:28;;;;;;;;;;;;;;;25.95;48.38;97763.29;613715;231;66750;-73
2023/01/07 05:48:55;;;;;;;;;;;;;;;25.96;48.37;97765.68;613714;231;68441;-73
2023/01/07 05:51:23;;;;;;;;;;;;;;;25.99;48.48;97764.31;613696;231;64884;-73
2023/01/07 05:53:50;;;;;;;;;;;;;;;26.00;48.16;97758.66;613709;231;68662;-73
2023/01/07 05:56:18;;;;;;;;;;;;;;;26.02;49.45;97761.84;613783;231;68606;-73
2023/01/07 05:58:48;;;;;;;;;;;;;;;26.05;49.37;97757.77;613793;231;64902;-73
2023/01/07 06:01:15;;;;;;;;;;;;;;;26.07;50.77;97761.78;613711;231;68400;-73
2023/01/07 06:03:43;;;;;;;;;;;;;;;26.10;49.35;97758.52;613731;231;68709;-73
2023/01/07 06:06:10;;;;;;;;;;;;;;;26.11;48.42;97762.84;613684;231;64934;-73
2023/01/07 06:08:38;;;;;;;;;;;;;;;26.14;48.36;97758.77;613692;231;68669;-73
2023/01/07 06:11:07;;;;;;;;;;;;;;;26.18;50.91;97759.78;613733;231;69127;-73
2023/01/07 06:13:35;;;;;;;;;;;;;;;26.21;49.25;97755.72;613721;231;65033;-73
2023/01/07 06:16:04;;;;;;;;;;;;;;;26.25;48.00;97762.95;613723;231;68617;-73
2023/01/07 06:18:31;;;;;;;;;;;;;;;26.28;48.24;97764.27;613663;231;66474;-73
2023/01/07 06:20:59;;;;;;;;;;;;;;;26.30;50.00;97765.59;613731;231;62732;-73
2023/01/07 06:23:26;;;;;;;;;;;;;;;26.32;49.85;97766.08;613769;231;66442;-73
2023/01/07 06:25:54;;;;;;;;;;;;;;;26.34;49.98;97766.60;613725;231;66275;-73
2023/01/07 06:28:21;;;;;;;;;;;;;;;26.37;49.82;97764.42;613684;231;62856;-73
2023/01/07 06:30:49;;;;;;;;;;;;;;;26.39;49.61;97764.95;613706;231;68612;-73
2023/01/07 06:33:16;;;;;;;;;;;;;;;26.42;48.32;97772.45;613664;231;68962;-73
2023/01/07 06:35:44;;;;;;;;;;;;;;;26.45;48.89;97782.66;613764;231;64986;-73
2023/01/07 06:38:12;;;;;;;;;;;;;;;26.47;48.88;97780.48;613687;231;68622;-73
2023/01/07 06:40:39;;;;;;;;;;;;;;;26.50;48.48;97779.91;613716;231;68609;-73
2023/01/07 06:43:07;;;;;;;;;;;;;;;26.51;46.56;97778.83;613697;231;64934;-72
2023/01/07 06:45:34;;;;;;;;;;;;;;;26.54;47.16;97786.34;613680;231;68643;-73
2023/01/07 06:48:02;;;;;;;;;;;;;;;26.55;48.85;97785.27;613762;231;68447;-73
2023/01/07 06:50:30;;;;;;;;;;;;;;;26.59;48.82;97785.48;613757;231;64857;-72
2023/01/07 06:52:57;;;;;;;;;;;;;;;26.60;47.50;97785.20;613736;231;68099;-73
2023/01/07 06:55:25;;;;;;;;;;;;;;;26.62;49.26;97779.50;613724;231;68308;-73
2023/01/07 06:57:52;;;;;;;;;;;;;;;26.62;49.62;97791.09;613712;231;65117;-73
2023/01/07 07:00:20;;;;;;;;;;;;;;;26.64;45.70;97786.22;613695;231;68631;-73
2023/01/07 07:02:47;;;;;;;;;;;;;;;26.67;47.55;97791.02;613793;231;66238;-73
2023/01/07 07:05:15;;;;;;;;;;;;;;;26.68;44.96;97787.26;613745;231;62745;-73
2023/01/07 07:07:42;;;;;;;;;;;;;;;26.71;46.30;97785.84;613699;231;66209;-73
2023/01/07 07:10:10;;;;;;;;;;;;;;;26.72;44.45;97782.08;613753;231;66151;-73
2023/01/07 07:12:38;;;;;;;;;;;;;;;26.73;46.73;97776.37;613677;231;64786;-73
2023/01/07 07:15:07;;;;;;;;;;;;;;;26.75;47.26;97770.70;613799;231;66701;-73
2023/01/07 07:17:34;;;;;;;;;;;;;;;26.77;46.31;97773.92;613654;231;68547;-73
2023/01/07 07:20:01;;;;;;;;;;;;;;;26.78;45.98;97765.53;613713;231;66069;-73
2023/01/07 07:22:29;;;;;;;;;;;;;;;26.79;47.89;97764.45;613692;231;68792;-72
2023/01/07 07:24:57;;;;;;;;;;;;;;;26.79;45.59;97759.06;613700;231;68698;-72
2023/01/07 07:27:24;;;;;;;;;;;;;;;26.82;45.13;97759.55;613792;230;62748;-73
2023/01/07 07:29:51;;;;;;;;;;;;;;;26.83;48.11;97758.47;615102;230;66442;-73
2023/01/07 07:32:19;;;;;;;;;;;;;;;26.83;44.64;97756.58;615067;230;68522;-73
2023/01/07 07:34:46;;;;;;;;;;;;;;;26.86;48.25;97755.19;615112;230;62777;-73
2023/01/07 07:37:16;;;;;;;;;;;;;;;26.87;48.46;97756.78;614896;230;50286;-73
2023/01/07 07:39:43;;;;;;;;;;;;;;;26.86;47.64;97760.59;615120;230;66221;-72
2023/01/07 07:42:10;;;;;;;;;;;;;;;26.87;48.86;97759.48;615100;230;63651;-73
2023/01/07 07:44:38;;;;;;;;;;;;;;;26.87;47.65;97762.17;615119;230;68656;-72
2023/01/07 07:47:05;;;;;;;;;;;;;;;26.87;46.37;97752.19;615060;230;68875;-73
2023/01/07 07:49:33;;;;;;;;;;;;;;;26.88;49.17;97751.11;615107;230;64928;-73
2023/01/07 07:52:00;;;;;;;;;;;;;;;26.89;48.70;97741.12;615149;230;66366;-73
2023/01/07 07:54:28;;;;;;;;;;;;;;;26.89;45.49;97743.81;615054;230;68412;-73
2023/01/07 07:56:57;;;;;;;;;;;;;;;26.89;45.88;97744.61;615096;230;65060;-73
2023/01/07 07:59:26;;;;;;;;;;;;;;;26.90;47.51;97751.63;615108;230;66458;-73
2023/01/07 08:01:53;;;;;;;;;;;;;;;26.90;48.03;97748.11;615065;230;66380;-72
2023/01/07 08:04:21;;;;;;;;;;;;;;;26.90;46.82;97751.63;615197;230;62848;-73
2023/01/07 08:06:48;;;;;;;;;;;;;;;26.91;47.79;97752.42;615140;230;66192;-73
2023/01/07 08:09:16;;;;;;;;;;;;;;;26.91;46.98;97741.64;615143;230;68332;-73
2023/01/07 08:11:43;;;;;;;;;;;;;;;26.89;46.81;97743.81;615080;230;64851;-73
2023/01/07 08:14:12;;;;;;;;;;;;;;;26.90;49.10;97746.23;615139;230;68885;-72
2023/01/07 08:16:40;;;;;;;;;;;;;;;26.89;46.51;97741.12;615129;230;68672;-73
2023/01/07 08:19:07;;;;;;;;;;;;;;;26.89;46.58;97744.61;615144;230;64866;-72
2023/01/07 08:21:35;;;;;;;;;;;;;;;26.90;47.54;97740.84;615111;230;68708;-72
2023/01/07 08:24:02;;;;;;;;;;;;;;;26.90;47.52;97737.31;615124;230;68357;-73
2023/01/07 08:26:30;;;;;;;;;;;;;;;26.89;47.38;97733.83;615108;230;65054;-73
2023/01/07 08:28:57;;;;;;;;;;;;;;;26.89;47.66;97733.03;615126;230;68659;-72
2023/01/07 08:31:25;;;;;;;;;;;;;;;26.89;47.39;97738.42;615154;230;68582;-73
2023/01/07 08:33:52;;;;;;;;;;;;;;;26.89;46.89;97730.33;615088;230;64911;-73
2023/01/07 08:36:19;;;;;;;;;;;;;;;26.88;47.69;97726.05;615096;230;69875;-73
2023/01/07 08:38:48;;;;;;;;;;;;;;;26.87;47.56;97725.22;615104;230;68495;-73
2023/01/07 08:41:16;;;;;;;;;;;;;;;26.88;47.47;97731.44;615122;230;64924;-73
2023/01/07 08:43:43;;;;;;;;;;;;;;;26.88;46.69;97734.13;615155;230;66442;-73
2023/01/07 08:46:11;;;;;;;;;;;;;;;26.87;48.15;97730.61;615115;230;68545;-73
2023/01/07 08:48:39;;;;;;;;;;;;;;;26.86;47.54;97728.22;615078;230;62801;-72
2023/01/07 08:51:07;;;;;;;;;;;;;;;26.87;47.93;97727.91;615095;230;68649;-73
2023/01/07 08:53:34;;;;;;;;;;;;;;;26.86;46.57;97723.63;615135;230;68303;-72
2023/01/07 08:56:02;;;;;;;;;;;;;;;26.85;49.30;97719.34;615110;230;65152;-72
2023/01/07 08:58:29;;;;;;;;;;;;;;;26.85;48.01;97718.54;615144;230;68618;-72
2023/01/07 09:01:05;;;;;;;;;;;;;;;26.83;46.73;97718.02;615053;230;69259;-72
2023/01/07 09:03:33;;;;;;;;;;;;;;;26.83;47.52;97718.82;615125;230;63058;-73
2023/01/07 09:06:00;;;;;;;;;;;;;;;26.83;46.96;97707.23;615118;230;66467;-72
2023/01/07 09:08:28;;;;;;;;;;;;;;;26.83;46.96;97707.23;615127;230;67616;-73
2023/01/07 09:10:55;;;;;;;;;;;;;;;26.82;48.53;97702.92;615147;230;64876;-71
2023/01/07 09:13:23;;;;;;;;;;;;;;;26.79;47.80;97702.44;615097;230;68632;-71
2023/01/07 09:15:51;;;;;;;;;;;;;;;26.81;46.64;97695.94;615092;230;69433;-71
2023/01/07 09:18:20;;;;;;;;;;;;;;;26.80;47.90;97692.44;615148;230;64970;-71
2023/01/07 09:20:47;;;;;;;;;;;;;;;26.79;47.16;97685.42;615103;230;68547;-71
2023/01/07 09:23:15;;;;;;;;;;;;;;;26.78;46.39;97684.63;615145;230;68500;-71
2023/01/07 09:25:42;;;;;;;;;;;;;;;26.77;46.03;97677.64;615088;230;62743;-71
2023/01/07 09:28:10;;;;;;;;;;;;;;;26.77;47.84;97677.64;615035;230;66557;-71
2023/01/07 09:30:37;;;;;;;;;;;;;;;26.76;46.11;97664.44;615116;230;66452;-71
2023/01/07 09:33:05;;;;;;;;;;;;;;;26.76;47.17;97654.48;615074;230;64705;-71
2023/01/07 09:35:33;;;;;;;;;;;;;;;26.76;47.94;97653.66;615158;230;68698;-71
2023/01/07 09:38:00;;;;;;;;;;;;;;;26.75;48.50;97642.08;615163;230;66467;-71
2023/01/07 09:40:29;;;;;;;;;;;;;;;26.74;47.51;97637.79;615114;230;64888;-71
2023/01/07 09:43:17;;;;;;;;;;;;;;;26.72;47.44;97631.88;615113;230;66519;-72
2023/01/07 09:45:46;;;;;;;;;;;;;;;26.72;46.97;97629.19;615094;230;66408;-73
2023/01/07 09:48:18;;;;;;;;;;;;;;;26.71;48.62;97629.47;615121;230;65258;-73
2023/01/07 09:50:47;;;;;;;;;;;;;;;26.70;48.10;97620.58;615040;230;66553;-74
2023/01/07 09:53:16;;;;;;;;;;;;;;;26.70;46.99;97622.48;615082;230;66556;-74
2023/01/07 09:55:44;;;;;;;;;;;;;;;26.68;47.58;97616.58;615010;230;62784;-74
2023/01/07 09:58:16;;;;;;;;;;;;;;;26.69;47.51;97610.11;615113;229;66620;-74
2023/01/07 10:00:57;;;;;;;;;;;;;;;26.68;47.49;97603.92;615078;230;68806;-74
2023/01/07 10:03:38;;;;;;;;;;;;;;;26.67;47.77;97593.42;615095;230;65071;-74
2023/01/07 10:06:22;;;;;;;;;;;;;;;26.66;47.38;97584.53;614737;230;68754;-75
2023/01/07 10:09:02;;;;;;;;;;;;;;;26.65;48.60;97585.61;615101;230;68343;-73
2023/01/07 10:11:34;;;;;;;;;;;;;;;26.65;46.93;97587.52;615109;230;62937;-72
2023/01/07 10:14:18;;;;;;;;;;;;;;;26.63;47.73;97587.00;615064;230;68674;-73
2023/01/07 10:16:53;;;;;;;;;;;;;;;26.61;48.27;97590.01;614513;230;68687;-73
2023/01/07 10:19:22;;;;;;;;;;;;;;;26.60;48.30;97580.33;614843;230;65136;-74
2023/01/07 10:21:54;;;;;;;;;;;;;;;26.59;48.52;97578.70;615106;230;68735;-74
2023/01/07 10:24:26;;;;;;;;;;;;;;;26.58;47.90;97574.42;615140;230;66473;-74
2023/01/07 10:26:55;;;;;;;;;;;;;;;26.57;48.22;97570.11;615134;230;62984;-75
2023/01/07 10:29:24;;;;;;;;;;;;;;;26.56;48.43;97563.13;615053;230;68700;-75
2023/01/07 10:31:53;;;;;;;;;;;;;;;26.55;48.14;97567.72;614684;230;66553;-75
2023/01/07 10:34:22;;;;;;;;;;;;;;;26.55;47.98;97570.42;615051;230;62823;-75
2023/01/07 10:36:51;;;;;;;;;;;;;;;26.54;47.71;97568.00;615082;230;69091;-74
2023/01/07 10:39:29;;;;;;;;;;;;;;;26.52;47.87;97557.53;614886;230;68756;-74
2023/01/07 10:42:04;;;;;;;;;;;;;;;26.51;48.41;97555.12;614807;230;62833;-74
2023/01/07 10:44:36;;;;;;;;;;;;;;;26.51;47.74;97560.51;614841;230;68727;-73
2023/01/07 10:47:21;;;;;;;;;;;;;;;26.51;48.12;97549.73;614543;230;68595;-73
2023/01/07 10:49:53;;;;;;;;;;;;;;;26.50;48.28;97545.41;615106;230;65217;-73
2023/01/07 10:52:25;;;;;;;;;;;;;;;26.48;48.83;97539.51;615118;230;68628;-73
2023/01/07 10:55:04;;;;;;;;;;;;;;;26.48;48.61;97539.51;615138;230;68543;-73
2023/01/07 10:57:32;;;;;;;;;;;;;;;26.46;46.98;97530.91;615173;230;64893;-73
2023/01/07 11:00:01;;;;;;;;;;;;;;;26.46;48.45;97533.61;615149;230;68388;-73
2023/01/07 11:02:29;;;;;;;;;;;;;;;26.44;48.29;97539.30;615118;230;68336;-74
2023/01/07 11:04:57;;;;;;;;;;;;;;;26.44;49.93;97530.42;615122;230;65245;-71
2023/01/07 11:07:26;;;;;;;;;;;;;;;26.43;49.30;97523.41;615124;230;68443;-72
2023/01/07 11:09:54;;;;;;;;;;;;;;;26.42;49.63;97524.52;615157;230;68305;-72
2023/01/07 11:12:36;;;;;;;;;;;;;;;26.41;49.49;97521.03;615083;230;65057;-71
2023/01/07 11:15:21;;;;;;;;;;;;;;;26.39;48.59;97515.13;615076;230;67117;-71
2023/01/07 11:17:50;;;;;;;;;;;;;;;26.39;49.50;97517.03;615105;230;66272;-71
2023/01/07 11:20:36;;;;;;;;;;;;;;;26.38;48.94;97516.20;615110;230;62749;-71
2023/01/07 11:23:04;;;;;;;;;;;;;;;26.35;48.84;97504.15;615113;230;66247;-70
2023/01/07 11:25:32;;;;;;;;;;;;;;;26.35;49.31;97504.15;614430;230;68448;-70
2023/01/07 11:28:01;;;;;;;;;;;;;;;26.34;48.43;97502.53;615121;230;64845;-70
2023/01/07 11:30:30;;;;;;;;;;;;;;;26.34;48.18;97507.13;615081;230;68801;-72
2023/01/07 11:33:02;;;;;;;;;;;;;;;26.33;47.50;97500.94;615027;230;69317;-70
2023/01/07 11:35:30;;;;;;;;;;;;;;;26.32;48.90;97496.62;615108;230;65063;-70
2023/01/07 11:37:58;;;;;;;;;;;;;;;26.31;47.85;97497.73;615101;230;68714;-70
2023/01/07 11:40:27;;;;;;;;;;;;;;;26.31;47.71;97495.04;615161;230;68729;-70
2023/01/07 11:42:56;;;;;;;;;;;;;;;26.30;49.00;97490.75;615149;230;64850;-70
2023/01/07 11:45:34;;;;;;;;;;;;;;;26.30;48.43;97479.15;615141;230;68883;-70
2023/01/07 11:48:06;;;;;;;;;;;;;;;26.28;49.51;97487.55;615101;230;68617;-70
2023/01/07 11:50:41;;;;;;;;;;;;;;;26.27;48.89;97480.56;615187;230;62810;-70
2023/01/07 11:53:10;;;;;;;;;;;;;;;26.26;48.35;97484.34;615116;230;68523;-70
2023/01/07 11:55:38;;;;;;;;;;;;;;;26.26;47.76;97478.16;615182;230;68668;-70
2023/01/07 11:58:05;;;;;;;;;;;;;;;26.25;48.88;97477.36;615090;230;64916;-70
2023/01/07 12:00:33;;;;;;;;;;;;;;;26.25;48.31;97468.48;615118;230;69770;-70
2023/01/07 12:03:05;;;;;;;;;;;;;;;26.23;46.96;97466.07;615123;230;68502;-70
2023/01/07 12:05:32;;;;;;;;;;;;;;;26.22;48.79;97461.79;614901;230;65103;-71
2023/01/07 12:08:00;;;;;;;;;;;;;;;26.22;47.18;97459.09;615186;230;68698;-71
2023/01/07 12:10:32;;;;;;;;;;;;;;;26.21;48.74;97457.47;615117;230;66510;-70
2023/01/07 12:13:00;;;;;;;;;;;;;;;26.20;47.70;97455.89;615119;230;62815;-70
2023/01/07 12:15:29;;;;;;;;;;;;;;;26.19;47.47;97456.99;615139;230;69612;-70
2023/01/07 12:18:04;;;;;;;;;;;;;;;26.19;47.73;97458.86;615123;230;68560;-70
2023/01/07 12:20:33;;;;;;;;;;;;;;;26.18;48.41;97455.37;614619;230;62729;-72
2023/01/07 12:23:05;;;;;;;;;;;;;;;26.16;46.78;97452.16;613720;230;66488;-71
2023/01/07 12:25:49;;;;;;;;;;;;;;;26.15;47.89;97455.96;614832;230;66416;-72
2023/01/07 12:28:20;;;;;;;;;;;;;;;26.15;48.06;97461.35;613948;229;65040;-73
2023/01/07 12:31:04;;;;;;;;;;;;;;;26.13;48.29;97453.55;615135;230;68933;-74
2023/01/07 12:33:39;;;;;;;;;;;;;;;26.12;47.54;97461.94;613876;230;68487;-75
2023/01/07 12:36:14;;;;;;;;;;;;;;;26.11;49.57;97450.38;615140;230;62779;-73
2023/01/07 12:38:46;;;;;;;;;;;;;;;26.09;47.48;97444.47;614681;230;68681;-73
2023/01/07 12:41:18;;;;;;;;;;;;;;;26.08;47.98;97450.14;614784;230;68312;-73
2023/01/07 12:43:49;;;;;;;;;;;;;;;26.07;48.47;97451.25;615080;230;65202;-74
2023/01/07 12:46:17;;;;;;;;;;;;;;;26.06;48.71;97457.73;614863;230;66439;-73
2023/01/07 12:48:46;;;;;;;;;;;;;;;26.05;48.52;97446.14;615109;230;69039;-73
2023/01/07 12:51:18;;;;;;;;;;;;;;;26.05;50.00;97456.12;615150;230;62891;-73
2023/01/07 12:53:50;;;;;;;;;;;;;;;26.04;50.19;97454.53;615154;230;68577;-74
2023/01/07 12:56:19;;;;;;;;;;;;;;;26.04;48.45;97443.75;614662;230;66573;-73
2023/01/07 12:58:51;;;;;;;;;;;;;;;26.03;50.53;97447.55;615133;230;64031;-74
2023/01/07 13:01:21;;;;;;;;;;;;;;;26.02;48.58;97449.42;615110;230;68622;-75